Latest Weather Observations for Townsville

IDQ60801

Issued at 7:02 am EST Sunday 14 February 2016 (issued every 30 minutes, with the page automatically refreshed every 10 minutes)

About weather observations | Map of weather stations | Latest weather observations for QLD | Other Formats
Station Details ID: 032040 Name: TOWNSVILLE AERO Lat: -19.25 Lon: 146.77 Height: 4.34 m
Data from the previous 72 hours. | See also: Recent months at Townsville
Date/Time
EST
Temp
°C
App
Temp
°C
Dew
Point
Rel
Hum
%
Delta-T
°C
Wind Press
QNH
hPa
Press
MSL
hPa
Rain
since 9 am
mm
Dir
 
Spd
km/h
Gust
km/h
Spd
kts
Gust
kts
14/06:30am 23.5 28.6 22.6 95 0.6 CALM 0 0 0 0 1007.5 1007.4 0.0
14/06:00am 23.2 28.1 22.3 95 0.6 CALM 0 0 0 0 1007.2 1007.1 0.0
14/05:30am 23.7 28.7 22.5 93 0.8 CALM 0 0 0 0 1007.0 1006.9 0.0
14/05:00am 23.8 28.9 22.6 93 0.8 CALM 0 0 0 0 1006.8 1006.7 0.0
14/04:30am 24.6 29.4 22.1 86 1.7 CALM 0 0 0 0 1006.7 1006.6 0.0
14/04:00am 24.6 29.3 21.9 85 1.8 CALM 0 0 0 0 1006.7 1006.6 0.0
14/03:30am 24.5 29.3 22.1 86 1.6 CALM 0 0 0 0 1006.8 1006.7 0.0
14/03:00am 25.4 29.0 22.3 83 2.1 WSW 7 11 4 6 1006.9 1006.8 0.0
14/02:30am 25.5 30.5 22.5 83 2.0 CALM 0 0 0 0 1007.1 1007.0 0.0
14/02:00am 25.9 30.8 22.3 80 2.4 CALM 0 0 0 0 1007.4 1007.3 0.0
14/01:30am 26.5 31.2 21.9 76 3.1 CALM 0 0 0 0 1007.7 1007.6 0.0
14/01:00am 26.0 30.9 22.4 80 2.4 CALM 0 0 0 0 1007.9 1007.8 0.0
14/12:30am 26.6 31.2 21.8 75 3.2 CALM 0 0 0 0 1008.3 1008.2 0.0
14/12:00am 26.4 29.1 21.4 74 3.3 NNE 9 11 5 6 1008.5 1008.4 0.0
 
Date/Time
EST
Temp
°C
App
Temp
°C
Dew
Point
Rel
Hum
%
Delta-T
°C
Wind Press
QNH
hPa
Press
MSL
hPa
Rain
since 9 am
mm
Dir
 
Spd
km/h
Gust
km/h
Spd
kts
Gust
kts
13/11:30pm 26.7 29.0 21.4 72 3.5 NNE 11 11 6 6 1008.7 1008.6 0.0
13/11:00pm 27.2 29.9 21.3 70 3.9 N 9 11 5 6 1008.7 1008.6 0.0
13/10:30pm 27.3 29.5 21.1 69 4.1 NNE 11 11 6 6 1008.5 1008.4 0.0
13/10:00pm 26.6 30.9 22.0 76 3.1 N 2 11 1 6 1008.3 1008.2 0.0
13/09:30pm 27.6 32.3 21.9 71 3.8 CALM 0 0 0 0 1008.0 1007.9 0.0
13/09:00pm 27.5 31.1 22.0 72 3.7 N 6 9 3 5 1007.9 1007.8 0.0
13/08:30pm 27.5 32.1 22.5 74 3.4 NNW 2 9 1 5 1007.6 1007.5 0.0
13/08:00pm 27.0 30.5 23.5 81 2.4 NW 11 13 6 7 1007.3 1007.2 0.0
13/07:30pm 27.9 31.2 22.6 73 3.6 N 9 13 5 7 1007.2 1007.1 0.0
13/07:00pm 28.5 30.7 21.8 67 4.5 N 13 17 7 9 1006.9 1006.8 0.0
13/06:30pm 29.3 31.8 21.7 63 5.1 NNW 11 15 6 8 1006.4 1006.3 0.0
13/06:00pm 30.1 32.0 21.3 59 5.9 N 13 19 7 10 1006.0 1005.9 0.0
13/05:30pm 31.0 33.1 21.7 57 6.3 NNE 13 17 7 9 1005.6 1005.5 0.0
13/05:00pm 31.1 32.6 21.3 56 6.6 ENE 15 20 8 11 1005.4 1005.3 0.0
13/04:30pm 31.5 32.7 20.7 52 7.2 ENE 15 20 8 11 1005.2 1005.1 0.0
13/04:00pm 31.0 32.2 22.5 60 5.8 ENE 20 28 11 15 1005.3 1005.2 0.0
13/03:30pm 31.3 31.7 21.7 56 6.5 ENE 22 28 12 15 1005.5 1005.4 0.0
13/03:00pm 31.2 30.9 21.1 55 6.8 NE 24 28 13 15 1005.7 1005.6 0.0
13/02:30pm 31.3 31.1 19.8 50 7.6 NE 20 28 11 15 1005.9 1005.8 0.0
13/02:00pm 31.8 31.9 20.0 49 7.8 NE 19 26 10 14 1006.0 1005.9 0.0
13/01:30pm 31.4 32.0 19.5 49 7.8 NNE 15 24 8 13 1006.4 1006.3 0.0
13/01:00pm 30.6 30.8 20.2 53 6.9 NE 19 26 10 14 1006.9 1006.8 0.0
13/12:30pm 30.9 31.8 21.9 58 6.1 ENE 20 28 11 15 1007.3 1007.2 0.0
13/12:00pm 30.8 32.3 22.0 59 6.0 NE 17 24 9 13 1007.7 1007.6 0.0
13/11:30am 30.1 31.8 21.6 60 5.7 NE 15 22 8 12 1008.2 1008.1 0.0
13/11:00am 30.8 32.1 21.6 58 6.2 NNE 17 24 9 13 1008.3 1008.2 0.0
13/10:30am 29.9 33.0 22.1 63 5.3 N 9 15 5 8 1008.6 1008.5 0.0
13/10:00am 29.4 33.3 21.2 61 5.5 W 2 7 1 4 1008.7 1008.6 0.0
13/09:30am 29.2 32.2 21.3 62 5.3 NNW 7 11 4 6 1008.9 1008.8 0.0
13/09:00am 29.1 31.9 21.5 63 5.1 WSW 9 15 5 8 1009.0 1008.9 0.0
13/08:30am 28.5 30.9 22.3 69 4.2 SSW 13 17 7 9 1008.9 1008.8 0.0
13/08:00am 27.7 31.4 22.5 73 3.5 SW 7 11 4 6 1008.7 1008.6 0.0
13/07:30am 26.4 30.3 23.0 81 2.3 W 7 7 4 4 1008.5 1008.4 0.0
13/07:00am 25.9 31.2 23.1 84 1.9 CALM 0 0 0 0 1008.3 1008.2 0.0
13/06:30am 24.8 29.9 22.7 88 1.4 CALM 0 0 0 0 1008.1 1008.0 0.0
13/06:00am 24.4 27.7 22.6 90 1.2 SE 9 11 5 6 1007.9 1007.8 0.0
13/05:30am 24.8 28.2 22.7 88 1.4 SE 9 13 5 7 1007.5 1007.4 0.0
13/05:00am 24.5 29.8 23.0 91 1.0 CALM 0 0 0 0 1007.3 1007.2 0.0
13/04:30am 24.7 30.1 23.2 91 1.0 CALM 0 0 0 0 1007.1 1007.0 0.0
13/04:00am 25.0 29.2 23.2 90 1.2 WNW 6 9 3 5 1007.1 1007.0 0.0
13/03:30am 25.7 29.7 23.1 85 1.8 SSE 7 7 4 4 1007.0 1006.9 0.0
13/03:00am 25.9 30.7 22.8 83 2.1 S 2 9 1 5 1007.2 1007.1 0.0
13/02:30am 26.6 29.9 22.5 78 2.8 SSE 9 9 5 5 1007.3 1007.2 0.0
13/02:00am 26.3 29.9 22.4 79 2.6 SSE 7 9 4 5 1007.6 1007.5 0.0
13/01:30am 26.6 29.5 22.5 78 2.8 SE 11 13 6 7 1008.0 1007.9 0.0
13/01:00am 27.4 30.3 22.5 74 3.3 SE 11 15 6 8 1008.3 1008.2 0.0
13/12:30am 27.3 30.6 22.6 75 3.2 E 9 11 5 6 1008.7 1008.6 0.0
13/12:00am 27.3 30.3 22.7 76 3.1 ENE 11 13 6 7 1009.0 1008.9 0.0
 
Date/Time
EST
Temp
°C
App
Temp
°C
Dew
Point
Rel
Hum
%
Delta-T
°C
Wind Press
QNH
hPa
Press
MSL
hPa
Rain
since 9 am
mm
Dir
 
Spd
km/h
Gust
km/h
Spd
kts
Gust
kts
12/11:30pm 27.6 30.6 22.7 74 3.3 E 11 13 6 7 1009.3 1009.2 0.0
12/11:00pm 27.9 30.9 22.0 70 4.0 E 9 15 5 8 1009.5 1009.4 0.0
12/10:30pm 27.6 30.5 21.8 70 3.9 E 9 11 5 6 1009.5 1009.4 0.0
12/10:00pm 27.9 31.0 22.1 70 3.9 ENE 9 15 5 8 1009.4 1009.3 0.0
12/09:30pm 28.0 30.7 22.9 74 3.5 ENE 13 17 7 9 1009.3 1009.2 0.0
12/09:00pm 28.3 30.3 22.2 69 4.1 NE 15 19 8 10 1008.9 1008.8 0.0
12/08:30pm 28.2 30.9 22.9 73 3.6 NE 13 19 7 10 1008.6 1008.5 0.0
12/08:00pm 28.1 30.5 23.0 74 3.5 ENE 15 19 8 10 1008.1 1008.0 0.0
12/07:30pm 28.1 29.8 23.0 74 3.5 ENE 19 26 10 14 1007.7 1007.6 0.0
12/07:00pm 28.3 30.7 22.9 72 3.7 ENE 15 19 8 10 1007.1 1007.0 0.0
12/06:30pm 29.0 30.4 22.5 68 4.4 ENE 19 26 10 14 1006.7 1006.6 0.0
12/06:00pm 29.9 32.3 22.2 63 5.2 N 13 15 7 8 1006.4 1006.3 0.0
12/05:30pm 30.4 32.6 21.8 60 5.8 NNW 13 20 7 11 1006.1 1006.0 0.0
12/05:00pm 31.7 34.1 22.2 57 6.5 ENE 13 15 7 8 1005.8 1005.7 0.0
12/04:30pm 32.1 33.2 19.7 48 8.2 NE 13 17 7 9 1005.7 1005.6 0.0
12/04:00pm 31.7 33.0 20.8 52 7.3 ENE 15 19 8 10 1005.5 1005.4 0.0
12/03:30pm 31.7 32.5 21.3 54 7.0 NE 19 24 10 13 1005.6 1005.5 0.0
12/03:00pm 31.4 32.8 21.0 54 7.0 NE 15 19 8 10 1005.9 1005.8 0.0
12/02:30pm 31.3 31.8 22.0 57 6.3 NE 22 28 12 15 1006.2 1006.1 0.0
12/02:00pm 31.6 32.9 21.7 55 6.7 ENE 17 26 9 14 1006.6 1006.5 0.0
12/01:30pm 31.6 33.2 21.5 55 6.8 NE 15 19 8 10 1006.9 1006.8 0.0
12/01:00pm 31.2 32.6 21.1 55 6.8 NE 15 22 8 12 1007.4 1007.3 0.0
12/12:30pm 32.1 33.8 21.6 53 7.1 NE 15 20 8 11 1007.8 1007.7 0.0
12/12:00pm 30.5 31.7 20.7 55 6.5 NNE 15 19 8 10 1008.4 1008.3 0.0
12/11:30am 31.1 33.1 21.5 56 6.5 NE 13 22 7 12 1008.9 1008.8 0.0
12/11:00am 31.0 32.4 21.0 55 6.7 ENE 15 22 8 12 1009.2 1009.1 0.0
12/10:30am 30.6 32.7 20.2 53 6.9 SSW 9 11 5 6 1009.6 1009.5 0.0
12/10:00am 29.9 32.7 19.7 54 6.7 W 4 9 2 5 1009.9 1009.8 0.0
12/09:30am 29.5 31.2 20.1 57 6.2 SW 11 15 6 8 1010.3 1010.2 0.0
12/09:00am 29.3 31.4 20.2 58 6.0 S 9 13 5 7 1010.3 1010.2 0.0
12/08:30am 28.7 31.0 20.7 62 5.3 SSE 9 11 5 6 1010.3 1010.2 0.0
12/08:00am 27.8 30.6 21.5 68 4.2 SSW 9 13 5 7 1010.2 1010.1 0.0
12/07:30am 26.6 31.8 22.9 80 2.5 CALM 0 7 0 4 1010.1 1010.0 0.0
12/07:00am 25.4 30.6 22.9 86 1.7 CALM 0 0 0 0 1009.9 1009.8 0.0
12/06:30am 24.3 28.1 22.8 91 1.0 SSE 7 9 4 5 1009.5 1009.4 0.0
12/06:00am 23.8 29.0 22.8 94 0.7 CALM 0 0 0 0 1009.2 1009.1 0.0
12/05:30am 23.9 29.3 23.3 96 0.4 CALM 0 0 0 0 1008.8 1008.7 0.0
12/05:00am 23.9 29.3 23.2 96 0.5 CALM 0 0 0 0 1008.6 1008.5 0.0
12/04:30am 24.3 29.6 23.1 93 0.8 CALM 0 0 0 0 1008.4 1008.3 0.0
12/04:00am 24.3 29.6 23.0 92 0.9 CALM 0 0 0 0 1008.4 1008.3 0.0
12/03:30am 24.9 30.0 22.7 87 1.5 CALM 0 0 0 0 1008.4 1008.3 0.0
12/03:00am 25.0 30.0 22.5 86 1.7 CALM 0 0 0 0 1008.3 1008.2 0.0
12/02:30am 24.9 30.3 23.3 91 1.1 CALM 0 0 0 0 1008.3 1008.2 0.0
12/02:00am 25.1 30.7 23.5 91 1.1 CALM 0 0 0 0 1008.3 1008.2 0.0
12/01:30am 25.4 31.1 23.8 91 1.1 CALM 0 0 0 0 1008.7 1008.6 0.0
12/01:00am 25.3 30.6 23.1 87 1.5 CALM 0 0 0 0 1009.0 1008.9 0.0
12/12:30am 25.4 30.6 22.9 86 1.7 CALM 0 0 0 0 1009.2 1009.1 0.0
12/12:00am 25.0 30.2 22.8 87 1.5 CALM 0 0 0 0 1009.2 1009.1 0.0
 
Date/Time
EST
Temp
°C
App
Temp
°C
Dew
Point
Rel
Hum
%
Delta-T
°C
Wind Press
QNH
hPa
Press
MSL
hPa
Rain
since 9 am
mm
Dir
 
Spd
km/h
Gust
km/h
Spd
kts
Gust
kts
11/11:30pm 25.0 30.1 22.6 86 1.6 CALM 0 0 0 0 1009.6 1009.5 0.0
11/11:00pm 25.5 30.7 22.8 85 1.8 CALM 0 0 0 0 1009.6 1009.5 0.0
11/10:30pm 25.4 29.3 23.0 86 1.6 WSW 7 9 4 5 1009.8 1009.7 0.0
11/10:00pm 24.9 28.9 23.1 90 1.2 WNW 7 9 4 5 1009.7 1009.6 0.0
11/09:30pm 25.0 29.0 23.1 89 1.3 WNW 7 9 4 5 1009.6 1009.5 0.0
11/09:00pm 25.8 29.5 23.2 85 1.8 W 9 11 5 6 1009.3 1009.2 0.0
11/08:30pm 25.9 29.1 22.3 80 2.4 W 9 11 5 6 1008.9 1008.8 0.0
11/08:00pm 26.1 29.0 22.5 80 2.4 WSW 11 15 6 8 1008.7 1008.6 0.0
11/07:30pm 27.5 31.3 21.7 70 3.9 E 4 7 2 4 1008.2 1008.1 0.0
11/07:00pm 27.8 29.8 21.5 68 4.2 ENE 13 15 7 8 1008.1 1008.0 0.0
11/06:30pm 28.5 30.0 21.3 65 4.8 ENE 15 20 8 11 1007.7 1007.6 0.0
11/06:00pm 28.8 29.5 20.5 61 5.5 ENE 17 22 9 12 1007.3 1007.2 0.0
11/05:30pm 28.5 30.6 21.0 64 5.0 SSE 11 17 6 9 1007.3 1007.2 0.0
11/05:00pm 28.9 28.8 19.9 58 5.9 E 20 28 11 15 1007.1 1007.0 0.0
11/04:30pm 29.4 27.8 20.0 57 6.2 E 28 35 15 19 1006.7 1006.6 0.0
11/04:00pm 29.5 29.8 20.8 59 5.8 E 20 30 11 16 1006.8 1006.7 0.0
11/03:30pm 28.6 28.5 21.4 65 4.8 E 24 32 13 17 1006.7 1006.6 0.0
11/03:00pm 29.0 28.4 21.9 65 4.8 ENE 28 33 15 18 1006.8 1006.7 0.0
11/02:30pm 29.6 29.6 21.6 62 5.4 ENE 24 30 13 16 1006.9 1006.8 0.0
11/02:00pm 30.0 29.9 21.4 60 5.8 ENE 24 32 13 17 1007.1 1007.0 0.0
11/01:30pm 30.3 30.1 21.2 58 6.1 ENE 24 30 13 16 1007.4 1007.3 0.0
11/01:00pm 29.7 30.7 21.0 59 5.8 E 17 24 9 13 1007.8 1007.7 0.0
11/12:30pm 29.5 30.4 21.6 62 5.3 ENE 19 26 10 14 1008.4 1008.3 0.0
11/12:00pm 29.1 30.1 21.7 64 5.0 NE 19 26 10 14 1008.6 1008.5 0.0
11/11:30am 29.7 30.8 21.3 60 5.6 E 17 26 9 14 1009.0 1008.9 0.0
11/11:00am 29.6 31.2 21.4 61 5.5 SE 15 22 8 12 1009.2 1009.1 0.0
11/10:30am 29.4 31.5 21.0 60 5.6 E 11 13 6 7 1009.3 1009.2 0.0
11/10:00am 29.8 31.2 21.1 59 5.8 SE 15 24 8 13 1009.4 1009.3 0.0
11/09:30am 29.3 30.2 20.9 60 5.6 SSE 17 24 9 13 1009.6 1009.5 0.0
11/09:00am 29.0 30.1 20.4 59 5.7 SE 15 20 8 11 1009.7 1009.6 0.0
11/08:30am 28.8 30.7 20.5 61 5.5 SE 11 20 6 11 1009.6 1009.5 0.0
11/08:00am 27.7 30.4 20.6 65 4.7 SW 7 9 4 5 1009.4 1009.3 0.0
11/07:30am 27.2 29.3 21.0 69 4.1 SSW 11 15 6 8 1009.0 1008.9 0.0

Other Formats:

Comma delimited format used in spreadsheet applications
http://www.bom.gov.au/fwo/IDQ60801/IDQ60801.94294.axf

JavaScript Object Notation format (JSON) in row-major order
http://www.bom.gov.au/fwo/IDQ60801/IDQ60801.94294.json